sensor_id;sensor_type;location;lat;lon;timestamp;P1;durP1;ratioP1;P2;durP2;ratioP2
6442;SDS011;3254;47.372;8.512;2023-08-01T00:00:45;7.50;;;4.20;;
6442;SDS011;3254;47.372;8.512;2023-08-01T00:03:14;5.53;;;4.40;;
6442;SDS011;3254;47.372;8.512;2023-08-01T00:05:40;5.40;;;4.83;;
6442;SDS011;3254;47.372;8.512;2023-08-01T00:08:13;6.60;;;4.07;;
6442;SDS011;3254;47.372;8.512;2023-08-01T00:10:39;6.03;;;5.53;;
6442;SDS011;3254;47.372;8.512;2023-08-01T00:13:06;6.23;;;4.37;;
6442;SDS011;3254;47.372;8.512;2023-08-01T00:15:33;8.47;;;4.30;;
6442;SDS011;3254;47.372;8.512;2023-08-01T00:17:58;6.73;;;5.13;;
6442;SDS011;3254;47.372;8.512;2023-08-01T00:20:24;6.00;;;5.07;;
6442;SDS011;3254;47.372;8.512;2023-08-01T00:22:50;8.93;;;4.33;;
6442;SDS011;3254;47.372;8.512;2023-08-01T00:25:16;4.73;;;4.13;;
6442;SDS011;3254;47.372;8.512;2023-08-01T00:27:42;5.40;;;3.97;;
6442;SDS011;3254;47.372;8.512;2023-08-01T00:30:08;4.27;;;3.70;;
6442;SDS011;3254;47.372;8.512;2023-08-01T00:32:34;4.47;;;4.13;;
6442;SDS011;3254;47.372;8.512;2023-08-01T00:35:00;5.00;;;4.10;;
6442;SDS011;3254;47.372;8.512;2023-08-01T00:37:26;4.50;;;4.10;;
6442;SDS011;3254;47.372;8.512;2023-08-01T00:39:51;3.70;;;3.43;;
6442;SDS011;3254;47.372;8.512;2023-08-01T00:42:17;4.23;;;3.87;;
6442;SDS011;3254;47.372;8.512;2023-08-01T00:44:43;5.30;;;3.60;;
6442;SDS011;3254;47.372;8.512;2023-08-01T00:47:11;9.23;;;4.23;;
6442;SDS011;3254;47.372;8.512;2023-08-01T00:49:37;3.97;;;3.73;;
6442;SDS011;3254;47.372;8.512;2023-08-01T00:52:03;5.97;;;4.40;;
6442;SDS011;3254;47.372;8.512;2023-08-01T00:54:30;5.50;;;4.57;;
6442;SDS011;3254;47.372;8.512;2023-08-01T00:57:00;4.80;;;3.83;;
6442;SDS011;3254;47.372;8.512;2023-08-01T00:59:29;5.10;;;4.30;;
6442;SDS011;3254;47.372;8.512;2023-08-01T01:01:55;6.17;;;4.80;;
6442;SDS011;3254;47.372;8.512;2023-08-01T01:04:21;4.40;;;4.00;;
6442;SDS011;3254;47.372;8.512;2023-08-01T01:06:48;4.60;;;4.30;;
6442;SDS011;3254;47.372;8.512;2023-08-01T01:09:18;4.10;;;3.70;;
6442;SDS011;3254;47.372;8.512;2023-08-01T01:11:46;4.50;;;4.10;;
6442;SDS011;3254;47.372;8.512;2023-08-01T01:14:12;4.47;;;4.07;;
6442;SDS011;3254;47.372;8.512;2023-08-01T01:16:37;4.17;;;3.80;;
6442;SDS011;3254;47.372;8.512;2023-08-01T01:19:05;5.57;;;4.07;;
6442;SDS011;3254;47.372;8.512;2023-08-01T01:24:43;5.50;;;4.00;;
6442;SDS011;3254;47.372;8.512;2023-08-01T01:27:11;4.33;;;3.77;;
6442;SDS011;3254;47.372;8.512;2023-08-01T01:29:37;7.10;;;4.50;;
6442;SDS011;3254;47.372;8.512;2023-08-01T01:32:10;4.23;;;3.90;;
6442;SDS011;3254;47.372;8.512;2023-08-01T01:34:36;6.53;;;4.47;;
6442;SDS011;3254;47.372;8.512;2023-08-01T01:37:05;3.80;;;3.50;;
6442;SDS011;3254;47.372;8.512;2023-08-01T01:39:32;4.37;;;3.97;;
6442;SDS011;3254;47.372;8.512;2023-08-01T01:41:57;4.10;;;3.90;;
6442;SDS011;3254;47.372;8.512;2023-08-01T01:44:23;4.40;;;4.10;;
6442;SDS011;3254;47.372;8.512;2023-08-01T01:46:48;4.87;;;4.07;;
6442;SDS011;3254;47.372;8.512;2023-08-01T01:49:14;5.90;;;3.87;;
6442;SDS011;3254;47.372;8.512;2023-08-01T01:51:40;4.80;;;4.37;;
6442;SDS011;3254;47.372;8.512;2023-08-01T01:54:06;6.00;;;4.70;;
6442;SDS011;3254;47.372;8.512;2023-08-01T01:56:31;5.13;;;3.70;;
6442;SDS011;3254;47.372;8.512;2023-08-01T01:58:57;7.77;;;4.63;;
6442;SDS011;3254;47.372;8.512;2023-08-01T02:01:24;3.73;;;3.53;;
6442;SDS011;3254;47.372;8.512;2023-08-01T02:03:50;5.50;;;4.30;;
6442;SDS011;3254;47.372;8.512;2023-08-01T02:06:15;4.33;;;3.77;;
6442;SDS011;3254;47.372;8.512;2023-08-01T02:08:41;5.00;;;4.50;;
6442;SDS011;3254;47.372;8.512;2023-08-01T02:11:07;7.00;;;4.23;;
6442;SDS011;3254;47.372;8.512;2023-08-01T02:13:32;7.47;;;4.30;;
6442;SDS011;3254;47.372;8.512;2023-08-01T02:15:59;5.57;;;4.20;;
6442;SDS011;3254;47.372;8.512;2023-08-01T02:18:24;4.53;;;4.17;;
6442;SDS011;3254;47.372;8.512;2023-08-01T02:20:50;5.27;;;4.07;;
6442;SDS011;3254;47.372;8.512;2023-08-01T02:23:15;3.80;;;3.60;;
6442;SDS011;3254;47.372;8.512;2023-08-01T02:25:41;4.37;;;4.07;;
6442;SDS011;3254;47.372;8.512;2023-08-01T02:28:07;4.50;;;4.10;;
6442;SDS011;3254;47.372;8.512;2023-08-01T02:30:35;4.73;;;3.97;;
6442;SDS011;3254;47.372;8.512;2023-08-01T02:33:01;5.20;;;4.23;;
6442;SDS011;3254;47.372;8.512;2023-08-01T02:35:28;4.00;;;3.67;;
6442;SDS011;3254;47.372;8.512;2023-08-01T02:37:54;4.40;;;3.97;;
6442;SDS011;3254;47.372;8.512;2023-08-01T02:40:20;6.00;;;4.23;;
6442;SDS011;3254;47.372;8.512;2023-08-01T02:42:46;4.93;;;4.23;;
6442;SDS011;3254;47.372;8.512;2023-08-01T02:45:12;3.30;;;3.10;;
6442;SDS011;3254;47.372;8.512;2023-08-01T02:47:37;5.00;;;4.20;;
6442;SDS011;3254;47.372;8.512;2023-08-01T02:50:03;5.77;;;3.60;;
6442;SDS011;3254;47.372;8.512;2023-08-01T02:52:30;4.10;;;3.80;;
6442;SDS011;3254;47.372;8.512;2023-08-01T02:55:00;4.13;;;3.70;;
6442;SDS011;3254;47.372;8.512;2023-08-01T02:57:26;4.40;;;4.10;;
6442;SDS011;3254;47.372;8.512;2023-08-01T02:59:51;3.90;;;3.60;;
6442;SDS011;3254;47.372;8.512;2023-08-01T03:02:18;10.00;;;3.77;;
6442;SDS011;3254;47.372;8.512;2023-08-01T03:04:44;7.83;;;4.10;;
6442;SDS011;3254;47.372;8.512;2023-08-01T03:07:10;5.63;;;3.83;;
6442;SDS011;3254;47.372;8.512;2023-08-01T03:09:36;4.60;;;4.00;;
6442;SDS011;3254;47.372;8.512;2023-08-01T03:12:01;6.30;;;4.73;;
6442;SDS011;3254;47.372;8.512;2023-08-01T03:14:27;6.90;;;4.33;;
6442;SDS011;3254;47.372;8.512;2023-08-01T03:16:53;4.50;;;4.00;;
6442;SDS011;3254;47.372;8.512;2023-08-01T03:19:18;7.63;;;4.73;;
6442;SDS011;3254;47.372;8.512;2023-08-01T03:21:44;8.60;;;4.90;;
6442;SDS011;3254;47.372;8.512;2023-08-01T03:24:09;4.67;;;4.27;;
6442;SDS011;3254;47.372;8.512;2023-08-01T03:26:35;5.03;;;4.53;;
6442;SDS011;3254;47.372;8.512;2023-08-01T03:29:01;4.87;;;4.30;;
6442;SDS011;3254;47.372;8.512;2023-08-01T03:31:27;5.53;;;4.80;;
6442;SDS011;3254;47.372;8.512;2023-08-01T03:33:53;10.30;;;3.97;;
6442;SDS011;3254;47.372;8.512;2023-08-01T03:36:18;4.60;;;4.20;;
6442;SDS011;3254;47.372;8.512;2023-08-01T03:38:45;5.07;;;4.60;;
6442;SDS011;3254;47.372;8.512;2023-08-01T03:41:11;5.20;;;3.90;;
6442;SDS011;3254;47.372;8.512;2023-08-01T03:43:37;5.63;;;4.30;;
6442;SDS011;3254;47.372;8.512;2023-08-01T03:46:03;5.37;;;4.47;;
6442;SDS011;3254;47.372;8.512;2023-08-01T03:48:29;6.20;;;4.37;;
6442;SDS011;3254;47.372;8.512;2023-08-01T03:50:55;6.50;;;4.37;;
6442;SDS011;3254;47.372;8.512;2023-08-01T03:53:20;8.13;;;4.40;;
6442;SDS011;3254;47.372;8.512;2023-08-01T03:55:47;6.60;;;4.77;;
6442;SDS011;3254;47.372;8.512;2023-08-01T03:58:14;5.40;;;5.00;;
6442;SDS011;3254;47.372;8.512;2023-08-01T04:00:41;6.23;;;4.17;;
6442;SDS011;3254;47.372;8.512;2023-08-01T04:03:07;10.60;;;4.83;;
6442;SDS011;3254;47.372;8.512;2023-08-01T04:05:32;6.80;;;5.00;;
6442;SDS011;3254;47.372;8.512;2023-08-01T04:07:58;5.13;;;4.43;;
6442;SDS011;3254;47.372;8.512;2023-08-01T04:10:24;5.27;;;4.33;;
6442;SDS011;3254;47.372;8.512;2023-08-01T04:12:50;9.00;;;4.77;;
6442;SDS011;3254;47.372;8.512;2023-08-01T04:15:15;5.00;;;4.60;;
6442;SDS011;3254;47.372;8.512;2023-08-01T04:17:41;6.30;;;4.37;;
6442;SDS011;3254;47.372;8.512;2023-08-01T04:20:06;6.00;;;4.57;;
6442;SDS011;3254;47.372;8.512;2023-08-01T04:22:32;6.10;;;4.20;;
6442;SDS011;3254;47.372;8.512;2023-08-01T04:24:58;6.03;;;5.03;;
6442;SDS011;3254;47.372;8.512;2023-08-01T04:27:23;5.10;;;4.60;;
6442;SDS011;3254;47.372;8.512;2023-08-01T04:29:49;4.90;;;4.50;;
6442;SDS011;3254;47.372;8.512;2023-08-01T04:32:15;5.40;;;4.90;;
6442;SDS011;3254;47.372;8.512;2023-08-01T04:34:41;8.97;;;4.43;;
6442;SDS011;3254;47.372;8.512;2023-08-01T04:37:06;5.10;;;4.60;;
6442;SDS011;3254;47.372;8.512;2023-08-01T04:39:32;6.87;;;4.40;;
6442;SDS011;3254;47.372;8.512;2023-08-01T04:41:58;8.40;;;4.50;;
6442;SDS011;3254;47.372;8.512;2023-08-01T04:44:24;5.60;;;4.57;;
6442;SDS011;3254;47.372;8.512;2023-08-01T04:46:50;5.03;;;4.50;;
6442;SDS011;3254;47.372;8.512;2023-08-01T04:49:16;5.50;;;4.53;;
6442;SDS011;3254;47.372;8.512;2023-08-01T04:51:42;5.20;;;4.70;;
6442;SDS011;3254;47.372;8.512;2023-08-01T04:54:09;5.27;;;4.77;;
6442;SDS011;3254;47.372;8.512;2023-08-01T04:56:35;6.13;;;5.03;;
6442;SDS011;3254;47.372;8.512;2023-08-01T04:59:02;6.97;;;5.87;;
6442;SDS011;3254;47.372;8.512;2023-08-01T05:01:27;6.93;;;5.20;;
6442;SDS011;3254;47.372;8.512;2023-08-01T05:03:57;5.67;;;5.03;;
6442;SDS011;3254;47.372;8.512;2023-08-01T05:06:23;7.70;;;5.73;;
6442;SDS011;3254;47.372;8.512;2023-08-01T05:08:48;6.13;;;5.30;;
6442;SDS011;3254;47.372;8.512;2023-08-01T05:11:14;6.60;;;4.63;;
6442;SDS011;3254;47.372;8.512;2023-08-01T05:13:39;4.70;;;4.20;;
6442;SDS011;3254;47.372;8.512;2023-08-01T05:16:05;5.30;;;4.80;;
6442;SDS011;3254;47.372;8.512;2023-08-01T05:18:31;4.83;;;4.37;;
6442;SDS011;3254;47.372;8.512;2023-08-01T05:20:56;6.00;;;4.43;;
6442;SDS011;3254;47.372;8.512;2023-08-01T05:23:22;8.90;;;6.37;;
6442;SDS011;3254;47.372;8.512;2023-08-01T05:25:49;5.00;;;4.10;;
6442;SDS011;3254;47.372;8.512;2023-08-01T05:28:14;5.13;;;4.63;;
6442;SDS011;3254;47.372;8.512;2023-08-01T05:30:40;5.30;;;4.60;;
6442;SDS011;3254;47.372;8.512;2023-08-01T05:33:05;4.90;;;4.40;;
6442;SDS011;3254;47.372;8.512;2023-08-01T05:35:31;4.80;;;4.27;;
6442;SDS011;3254;47.372;8.512;2023-08-01T05:38:00;4.27;;;3.87;;
6442;SDS011;3254;47.372;8.512;2023-08-01T05:40:25;5.00;;;4.50;;
6442;SDS011;3254;47.372;8.512;2023-08-01T05:42:51;5.43;;;4.33;;
6442;SDS011;3254;47.372;8.512;2023-08-01T05:45:16;5.83;;;4.50;;
6442;SDS011;3254;47.372;8.512;2023-08-01T05:47:42;6.63;;;4.20;;
6442;SDS011;3254;47.372;8.512;2023-08-01T05:50:10;5.50;;;3.97;;
6442;SDS011;3254;47.372;8.512;2023-08-01T05:52:36;4.57;;;3.87;;
6442;SDS011;3254;47.372;8.512;2023-08-01T05:55:01;4.70;;;4.30;;
6442;SDS011;3254;47.372;8.512;2023-08-01T05:57:27;11.10;;;4.63;;
6442;SDS011;3254;47.372;8.512;2023-08-01T05:59:53;4.47;;;4.07;;
6442;SDS011;3254;47.372;8.512;2023-08-01T06:02:19;4.20;;;3.70;;
6442;SDS011;3254;47.372;8.512;2023-08-01T06:04:44;5.70;;;4.10;;
6442;SDS011;3254;47.372;8.512;2023-08-01T06:07:10;5.90;;;4.40;;
6442;SDS011;3254;47.372;8.512;2023-08-01T06:09:36;8.93;;;4.93;;
6442;SDS011;3254;47.372;8.512;2023-08-01T06:12:02;5.50;;;4.27;;
6442;SDS011;3254;47.372;8.512;2023-08-01T06:14:27;6.77;;;3.93;;
6442;SDS011;3254;47.372;8.512;2023-08-01T06:16:53;7.13;;;4.40;;
6442;SDS011;3254;47.372;8.512;2023-08-01T06:19:19;5.43;;;4.67;;
6442;SDS011;3254;47.372;8.512;2023-08-01T06:21:44;4.97;;;4.00;;
6442;SDS011;3254;47.372;8.512;2023-08-01T06:24:11;4.40;;;4.00;;
6442;SDS011;3254;47.372;8.512;2023-08-01T06:26:37;4.70;;;4.20;;
6442;SDS011;3254;47.372;8.512;2023-08-01T06:29:03;6.00;;;4.60;;
6442;SDS011;3254;47.372;8.512;2023-08-01T06:31:28;4.30;;;3.90;;
6442;SDS011;3254;47.372;8.512;2023-08-01T06:33:54;7.20;;;5.30;;
6442;SDS011;3254;47.372;8.512;2023-08-01T06:36:20;6.10;;;4.57;;
6442;SDS011;3254;47.372;8.512;2023-08-01T06:38:45;4.53;;;4.13;;
6442;SDS011;3254;47.372;8.512;2023-08-01T06:41:11;9.67;;;5.30;;
6442;SDS011;3254;47.372;8.512;2023-08-01T06:43:38;5.93;;;5.10;;
6442;SDS011;3254;47.372;8.512;2023-08-01T06:46:05;10.43;;;6.00;;
6442;SDS011;3254;47.372;8.512;2023-08-01T06:48:31;9.50;;;7.50;;
6442;SDS011;3254;47.372;8.512;2023-08-01T06:51:01;7.53;;;5.10;;
6442;SDS011;3254;47.372;8.512;2023-08-01T06:53:27;12.30;;;5.80;;
6442;SDS011;3254;47.372;8.512;2023-08-01T06:55:53;8.57;;;5.93;;
6442;SDS011;3254;47.372;8.512;2023-08-01T06:58:20;9.40;;;5.40;;
6442;SDS011;3254;47.372;8.512;2023-08-01T07:00:45;7.77;;;6.00;;
6442;SDS011;3254;47.372;8.512;2023-08-01T07:03:11;7.87;;;6.30;;
6442;SDS011;3254;47.372;8.512;2023-08-01T07:05:36;8.40;;;6.23;;
6442;SDS011;3254;47.372;8.512;2023-08-01T07:08:02;11.17;;;6.50;;
6442;SDS011;3254;47.372;8.512;2023-08-01T07:10:28;8.80;;;7.40;;
6442;SDS011;3254;47.372;8.512;2023-08-01T07:12:54;9.37;;;6.80;;
6442;SDS011;3254;47.372;8.512;2023-08-01T07:15:20;6.53;;;5.37;;
6442;SDS011;3254;47.372;8.512;2023-08-01T07:17:45;8.93;;;5.37;;
6442;SDS011;3254;47.372;8.512;2023-08-01T07:20:11;4.43;;;4.03;;
6442;SDS011;3254;47.372;8.512;2023-08-01T07:22:36;5.10;;;3.90;;
6442;SDS011;3254;47.372;8.512;2023-08-01T07:25:02;12.03;;;4.17;;
6442;SDS011;3254;47.372;8.512;2023-08-01T07:27:28;4.13;;;3.70;;
6442;SDS011;3254;47.372;8.512;2023-08-01T07:29:53;13.30;;;4.20;;
6442;SDS011;3254;47.372;8.512;2023-08-01T07:32:19;4.60;;;4.23;;
6442;SDS011;3254;47.372;8.512;2023-08-01T07:34:44;5.37;;;4.20;;
6442;SDS011;3254;47.372;8.512;2023-08-01T07:37:10;8.20;;;4.43;;
6442;SDS011;3254;47.372;8.512;2023-08-01T07:39:36;4.77;;;4.10;;
6442;SDS011;3254;47.372;8.512;2023-08-01T07:42:01;5.60;;;4.13;;
6442;SDS011;3254;47.372;8.512;2023-08-01T07:44:27;6.67;;;4.50;;
6442;SDS011;3254;47.372;8.512;2023-08-01T07:46:54;4.33;;;3.93;;
6442;SDS011;3254;47.372;8.512;2023-08-01T07:49:21;5.70;;;4.00;;
6442;SDS011;3254;47.372;8.512;2023-08-01T07:51:47;6.17;;;4.40;;
6442;SDS011;3254;47.372;8.512;2023-08-01T07:54:12;4.83;;;3.43;;
6442;SDS011;3254;47.372;8.512;2023-08-01T07:56:38;9.47;;;3.60;;
6442;SDS011;3254;47.372;8.512;2023-08-01T07:59:03;6.77;;;4.70;;
6442;SDS011;3254;47.372;8.512;2023-08-01T08:01:29;9.97;;;4.40;;
6442;SDS011;3254;47.372;8.512;2023-08-01T08:03:55;3.93;;;3.60;;
6442;SDS011;3254;47.372;8.512;2023-08-01T08:06:24;4.00;;;3.60;;
6442;SDS011;3254;47.372;8.512;2023-08-01T08:08:50;6.50;;;5.00;;
6442;SDS011;3254;47.372;8.512;2023-08-01T08:11:19;4.10;;;3.70;;
6442;SDS011;3254;47.372;8.512;2023-08-01T08:13:45;3.83;;;3.57;;
6442;SDS011;3254;47.372;8.512;2023-08-01T08:16:11;6.10;;;3.73;;
6442;SDS011;3254;47.372;8.512;2023-08-01T08:18:37;6.20;;;3.90;;
6442;SDS011;3254;47.372;8.512;2023-08-01T08:21:03;6.57;;;3.77;;
6442;SDS011;3254;47.372;8.512;2023-08-01T08:23:30;4.43;;;4.03;;
6442;SDS011;3254;47.372;8.512;2023-08-01T08:25:55;7.83;;;3.70;;
6442;SDS011;3254;47.372;8.512;2023-08-01T08:28:31;4.40;;;3.90;;
6442;SDS011;3254;47.372;8.512;2023-08-01T08:30:58;5.20;;;4.47;;
6442;SDS011;3254;47.372;8.512;2023-08-01T08:33:24;4.97;;;4.50;;
6442;SDS011;3254;47.372;8.512;2023-08-01T08:35:50;5.97;;;4.10;;
6442;SDS011;3254;47.372;8.512;2023-08-01T08:38:17;6.90;;;4.53;;
6442;SDS011;3254;47.372;8.512;2023-08-01T08:43:37;5.53;;;4.40;;
6442;SDS011;3254;47.372;8.512;2023-08-01T08:46:05;5.87;;;4.53;;
6442;SDS011;3254;47.372;8.512;2023-08-01T08:48:32;6.33;;;4.90;;
6442;SDS011;3254;47.372;8.512;2023-08-01T08:50:59;4.87;;;4.47;;
6442;SDS011;3254;47.372;8.512;2023-08-01T08:53:26;5.63;;;4.60;;
6442;SDS011;3254;47.372;8.512;2023-08-01T08:55:53;6.87;;;4.93;;
6442;SDS011;3254;47.372;8.512;2023-08-01T08:58:18;8.20;;;4.43;;
6442;SDS011;3254;47.372;8.512;2023-08-01T09:00:44;10.37;;;5.30;;
6442;SDS011;3254;47.372;8.512;2023-08-01T09:03:10;7.43;;;5.30;;
6442;SDS011;3254;47.372;8.512;2023-08-01T09:05:44;6.30;;;4.73;;
6442;SDS011;3254;47.372;8.512;2023-08-01T09:08:19;8.17;;;4.80;;
6442;SDS011;3254;47.372;8.512;2023-08-01T09:10:46;6.60;;;5.50;;
6442;SDS011;3254;47.372;8.512;2023-08-01T09:13:13;8.10;;;5.30;;
6442;SDS011;3254;47.372;8.512;2023-08-01T09:15:41;12.63;;;5.73;;
6442;SDS011;3254;47.372;8.512;2023-08-01T09:18:08;6.90;;;4.80;;
6442;SDS011;3254;47.372;8.512;2023-08-01T09:20:44;5.00;;;4.33;;
6442;SDS011;3254;47.372;8.512;2023-08-01T09:23:12;6.03;;;5.17;;
6442;SDS011;3254;47.372;8.512;2023-08-01T09:25:38;5.80;;;4.70;;
6442;SDS011;3254;47.372;8.512;2023-08-01T09:28:18;6.20;;;4.90;;
6442;SDS011;3254;47.372;8.512;2023-08-01T09:30:49;7.13;;;5.33;;
6442;SDS011;3254;47.372;8.512;2023-08-01T09:33:17;7.90;;;5.50;;
6442;SDS011;3254;47.372;8.512;2023-08-01T09:35:43;8.30;;;5.87;;
6442;SDS011;3254;47.372;8.512;2023-08-01T09:38:14;8.77;;;5.77;;
6442;SDS011;3254;47.372;8.512;2023-08-01T09:40:44;5.43;;;4.93;;
6442;SDS011;3254;47.372;8.512;2023-08-01T09:43:11;6.37;;;5.10;;
6442;SDS011;3254;47.372;8.512;2023-08-01T09:45:37;10.20;;;5.73;;
6442;SDS011;3254;47.372;8.512;2023-08-01T09:48:22;6.27;;;5.23;;
6442;SDS011;3254;47.372;8.512;2023-08-01T09:50:49;5.60;;;4.80;;
6442;SDS011;3254;47.372;8.512;2023-08-01T09:53:15;7.23;;;4.37;;
6442;SDS011;3254;47.372;8.512;2023-08-01T09:55:41;6.80;;;4.97;;
6442;SDS011;3254;47.372;8.512;2023-08-01T09:58:10;5.50;;;5.00;;
6442;SDS011;3254;47.372;8.512;2023-08-01T10:00:39;8.50;;;5.13;;
6442;SDS011;3254;47.372;8.512;2023-08-01T10:03:05;7.23;;;4.77;;
6442;SDS011;3254;47.372;8.512;2023-08-01T10:05:32;6.30;;;4.47;;
6442;SDS011;3254;47.372;8.512;2023-08-01T10:08:00;9.67;;;5.23;;
6442;SDS011;3254;47.372;8.512;2023-08-01T10:10:29;5.03;;;4.47;;
6442;SDS011;3254;47.372;8.512;2023-08-01T10:12:56;9.50;;;4.37;;
6442;SDS011;3254;47.372;8.512;2023-08-01T10:15:23;5.13;;;4.03;;
6442;SDS011;3254;47.372;8.512;2023-08-01T10:17:51;5.20;;;4.70;;
6442;SDS011;3254;47.372;8.512;2023-08-01T10:20:17;16.33;;;4.70;;
6442;SDS011;3254;47.372;8.512;2023-08-01T10:22:45;12.20;;;5.50;;
6442;SDS011;3254;47.372;8.512;2023-08-01T10:25:14;10.33;;;5.80;;
6442;SDS011;3254;47.372;8.512;2023-08-01T10:27:41;6.53;;;5.77;;
6442;SDS011;3254;47.372;8.512;2023-08-01T10:30:07;5.40;;;4.90;;
6442;SDS011;3254;47.372;8.512;2023-08-01T10:32:35;7.00;;;5.30;;
6442;SDS011;3254;47.372;8.512;2023-08-01T10:35:03;4.60;;;4.20;;
6442;SDS011;3254;47.372;8.512;2023-08-01T10:37:39;5.97;;;4.43;;
6442;SDS011;3254;47.372;8.512;2023-08-01T10:40:06;5.90;;;4.80;;
6442;SDS011;3254;47.372;8.512;2023-08-01T10:42:39;5.23;;;4.60;;
6442;SDS011;3254;47.372;8.512;2023-08-01T10:45:06;4.87;;;3.97;;
6442;SDS011;3254;47.372;8.512;2023-08-01T10:47:45;4.27;;;3.93;;
6442;SDS011;3254;47.372;8.512;2023-08-01T10:50:14;5.03;;;4.23;;
6442;SDS011;3254;47.372;8.512;2023-08-01T10:52:40;5.10;;;4.60;;
6442;SDS011;3254;47.372;8.512;2023-08-01T10:55:07;11.00;;;5.50;;
6442;SDS011;3254;47.372;8.512;2023-08-01T10:57:34;5.77;;;4.50;;
6442;SDS011;3254;47.372;8.512;2023-08-01T11:00:02;5.90;;;5.23;;
6442;SDS011;3254;47.372;8.512;2023-08-01T11:02:35;6.37;;;4.57;;
6442;SDS011;3254;47.372;8.512;2023-08-01T11:05:01;5.80;;;5.20;;
6442;SDS011;3254;47.372;8.512;2023-08-01T11:07:29;5.80;;;4.50;;
6442;SDS011;3254;47.372;8.512;2023-08-01T11:12:34;4.30;;;3.90;;
6442;SDS011;3254;47.372;8.512;2023-08-01T11:15:01;4.00;;;3.70;;
6442;SDS011;3254;47.372;8.512;2023-08-01T11:17:28;3.47;;;3.17;;
6442;SDS011;3254;47.372;8.512;2023-08-01T11:20:04;4.43;;;4.10;;
6442;SDS011;3254;47.372;8.512;2023-08-01T11:22:31;5.10;;;3.60;;
6442;SDS011;3254;47.372;8.512;2023-08-01T11:24:58;3.90;;;3.60;;
6442;SDS011;3254;47.372;8.512;2023-08-01T11:27:24;7.23;;;3.97;;
6442;SDS011;3254;47.372;8.512;2023-08-01T11:29:51;5.40;;;4.07;;
6442;SDS011;3254;47.372;8.512;2023-08-01T11:32:19;5.50;;;3.63;;
6442;SDS011;3254;47.372;8.512;2023-08-01T11:34:48;4.90;;;4.40;;
6442;SDS011;3254;47.372;8.512;2023-08-01T11:37:14;4.37;;;3.97;;
6442;SDS011;3254;47.372;8.512;2023-08-01T11:39:44;4.57;;;3.97;;
6442;SDS011;3254;47.372;8.512;2023-08-01T11:42:15;5.83;;;3.53;;
6442;SDS011;3254;47.372;8.512;2023-08-01T11:44:41;5.63;;;4.70;;
6442;SDS011;3254;47.372;8.512;2023-08-01T11:47:11;5.40;;;4.20;;
6442;SDS011;3254;47.372;8.512;2023-08-01T11:49:38;9.10;;;4.60;;
6442;SDS011;3254;47.372;8.512;2023-08-01T11:52:04;6.30;;;5.03;;
6442;SDS011;3254;47.372;8.512;2023-08-01T11:54:31;5.10;;;4.47;;
6442;SDS011;3254;47.372;8.512;2023-08-01T11:57:09;10.50;;;4.90;;
6442;SDS011;3254;47.372;8.512;2023-08-01T11:59:34;5.37;;;4.03;;
6442;SDS011;3254;47.372;8.512;2023-08-01T12:02:11;4.13;;;3.83;;
6442;SDS011;3254;47.372;8.512;2023-08-01T12:04:46;4.53;;;4.00;;
6442;SDS011;3254;47.372;8.512;2023-08-01T12:07:15;13.30;;;4.07;;
6442;SDS011;3254;47.372;8.512;2023-08-01T12:09:41;5.53;;;4.07;;
6442;SDS011;3254;47.372;8.512;2023-08-01T12:12:08;3.57;;;3.27;;
6442;SDS011;3254;47.372;8.512;2023-08-01T12:14:41;4.70;;;3.70;;
6442;SDS011;3254;47.372;8.512;2023-08-01T12:17:08;7.00;;;4.03;;
6442;SDS011;3254;47.372;8.512;2023-08-01T12:19:33;6.80;;;3.40;;
6442;SDS011;3254;47.372;8.512;2023-08-01T12:22:01;3.90;;;3.60;;
6442;SDS011;3254;47.372;8.512;2023-08-01T12:24:27;3.20;;;3.00;;
6442;SDS011;3254;47.372;8.512;2023-08-01T12:26:53;3.03;;;2.77;;
6442;SDS011;3254;47.372;8.512;2023-08-01T12:29:21;3.03;;;2.77;;
6442;SDS011;3254;47.372;8.512;2023-08-01T12:31:47;2.90;;;2.70;;
6442;SDS011;3254;47.372;8.512;2023-08-01T12:34:13;2.50;;;2.30;;
6442;SDS011;3254;47.372;8.512;2023-08-01T12:36:40;3.17;;;2.30;;
6442;SDS011;3254;47.372;8.512;2023-08-01T12:39:06;2.70;;;2.50;;
6442;SDS011;3254;47.372;8.512;2023-08-01T12:41:36;3.10;;;2.80;;
6442;SDS011;3254;47.372;8.512;2023-08-01T12:44:02;2.53;;;2.33;;
6442;SDS011;3254;47.372;8.512;2023-08-01T12:46:29;2.40;;;2.20;;
6442;SDS011;3254;47.372;8.512;2023-08-01T12:48:55;1.73;;;1.53;;
6442;SDS011;3254;47.372;8.512;2023-08-01T12:51:21;1.63;;;1.53;;
6442;SDS011;3254;47.372;8.512;2023-08-01T12:53:48;2.10;;;1.73;;
6442;SDS011;3254;47.372;8.512;2023-08-01T12:56:13;1.90;;;1.80;;
6442;SDS011;3254;47.372;8.512;2023-08-01T12:58:40;3.73;;;3.43;;
6442;SDS011;3254;47.372;8.512;2023-08-01T13:01:06;2.13;;;1.83;;
6442;SDS011;3254;47.372;8.512;2023-08-01T13:03:34;2.93;;;2.20;;
6442;SDS011;3254;47.372;8.512;2023-08-01T13:06:00;2.30;;;2.13;;
6442;SDS011;3254;47.372;8.512;2023-08-01T13:08:26;2.50;;;1.67;;
6442;SDS011;3254;47.372;8.512;2023-08-01T13:10:51;4.17;;;2.07;;
6442;SDS011;3254;47.372;8.512;2023-08-01T13:13:17;3.70;;;1.83;;
6442;SDS011;3254;47.372;8.512;2023-08-01T13:15:44;1.90;;;1.80;;
6442;SDS011;3254;47.372;8.512;2023-08-01T13:18:10;2.90;;;1.87;;
6442;SDS011;3254;47.372;8.512;2023-08-01T13:20:35;3.10;;;2.10;;
6442;SDS011;3254;47.372;8.512;2023-08-01T13:23:01;2.70;;;2.20;;
6442;SDS011;3254;47.372;8.512;2023-08-01T13:25:27;2.20;;;2.00;;
6442;SDS011;3254;47.372;8.512;2023-08-01T13:27:53;2.13;;;2.03;;
6442;SDS011;3254;47.372;8.512;2023-08-01T13:30:19;3.00;;;2.70;;
6442;SDS011;3254;47.372;8.512;2023-08-01T13:32:46;3.00;;;2.80;;
6442;SDS011;3254;47.372;8.512;2023-08-01T13:35:13;2.90;;;2.60;;
6442;SDS011;3254;47.372;8.512;2023-08-01T13:37:40;3.00;;;2.80;;
6442;SDS011;3254;47.372;8.512;2023-08-01T13:40:06;2.57;;;2.37;;
6442;SDS011;3254;47.372;8.512;2023-08-01T13:42:33;3.83;;;2.47;;
6442;SDS011;3254;47.372;8.512;2023-08-01T13:44:59;3.43;;;3.13;;
6442;SDS011;3254;47.372;8.512;2023-08-01T13:47:27;2.50;;;2.30;;
6442;SDS011;3254;47.372;8.512;2023-08-01T13:49:53;3.00;;;2.80;;
6442;SDS011;3254;47.372;8.512;2023-08-01T13:52:18;3.53;;;3.17;;
6442;SDS011;3254;47.372;8.512;2023-08-01T13:54:44;4.70;;;3.03;;
6442;SDS011;3254;47.372;8.512;2023-08-01T13:57:10;2.50;;;2.40;;
6442;SDS011;3254;47.372;8.512;2023-08-01T13:59:36;2.67;;;2.57;;
6442;SDS011;3254;47.372;8.512;2023-08-01T14:02:01;3.40;;;1.97;;
6442;SDS011;3254;47.372;8.512;2023-08-01T14:04:28;2.40;;;2.17;;
6442;SDS011;3254;47.372;8.512;2023-08-01T14:06:53;2.43;;;2.33;;
6442;SDS011;3254;47.372;8.512;2023-08-01T14:09:21;2.30;;;2.10;;
6442;SDS011;3254;47.372;8.512;2023-08-01T14:11:48;2.07;;;1.97;;
6442;SDS011;3254;47.372;8.512;2023-08-01T14:14:13;2.17;;;2.07;;
6442;SDS011;3254;47.372;8.512;2023-08-01T14:16:40;1.83;;;1.73;;
6442;SDS011;3254;47.372;8.512;2023-08-01T14:19:06;3.00;;;2.27;;
6442;SDS011;3254;47.372;8.512;2023-08-01T14:21:33;1.53;;;1.43;;
6442;SDS011;3254;47.372;8.512;2023-08-01T14:24:01;1.90;;;1.80;;
6442;SDS011;3254;47.372;8.512;2023-08-01T14:26:29;2.33;;;2.13;;
6442;SDS011;3254;47.372;8.512;2023-08-01T14:28:54;3.37;;;1.83;;
6442;SDS011;3254;47.372;8.512;2023-08-01T14:31:20;1.83;;;1.73;;
6442;SDS011;3254;47.372;8.512;2023-08-01T14:33:47;2.00;;;1.90;;
6442;SDS011;3254;47.372;8.512;2023-08-01T14:36:13;2.47;;;2.33;;
6442;SDS011;3254;47.372;8.512;2023-08-01T14:38:40;4.10;;;2.20;;
6442;SDS011;3254;47.372;8.512;2023-08-01T14:41:06;2.37;;;2.17;;
6442;SDS011;3254;47.372;8.512;2023-08-01T14:43:32;2.23;;;2.13;;
6442;SDS011;3254;47.372;8.512;2023-08-01T14:46:02;4.87;;;2.70;;
6442;SDS011;3254;47.372;8.512;2023-08-01T14:48:28;2.80;;;2.60;;
6442;SDS011;3254;47.372;8.512;2023-08-01T14:50:53;8.03;;;2.50;;
6442;SDS011;3254;47.372;8.512;2023-08-01T14:53:19;21.33;;;2.60;;
6442;SDS011;3254;47.372;8.512;2023-08-01T14:55:45;2.43;;;2.23;;
6442;SDS011;3254;47.372;8.512;2023-08-01T14:58:11;5.60;;;2.77;;
6442;SDS011;3254;47.372;8.512;2023-08-01T15:00:37;2.60;;;2.40;;
6442;SDS011;3254;47.372;8.512;2023-08-01T15:03:02;2.40;;;2.23;;
6442;SDS011;3254;47.372;8.512;2023-08-01T15:05:29;2.20;;;2.10;;
6442;SDS011;3254;47.372;8.512;2023-08-01T15:07:54;2.30;;;2.20;;
6442;SDS011;3254;47.372;8.512;2023-08-01T15:10:20;3.40;;;2.03;;
6442;SDS011;3254;47.372;8.512;2023-08-01T15:12:45;2.33;;;2.10;;
6442;SDS011;3254;47.372;8.512;2023-08-01T15:15:12;1.83;;;1.73;;
6442;SDS011;3254;47.372;8.512;2023-08-01T15:17:38;1.73;;;1.63;;
6442;SDS011;3254;47.372;8.512;2023-08-01T15:20:04;1.30;;;1.20;;